Time;durP1;ratioP1;P1;durP2;ratioP2;P2;SDS_P1;SDS_P2;PMS_P1;PMS_P2;Temp;Humidity;BMP_temperature;BMP_pressure;BME280_temperature;BME280_humidity;BME280_pressure;Samples;Min_cycle;Max_cycle;Signal;HPM_P1;HPM_P2
2022/09/17 00:00:48;;;;;;;14.40;2.57;;;;;;;-145.18;100.00;46660.41;4991060;28;20054;-69
2022/09/17 00:03:15;;;;;;;12.50;1.60;;;;;;;-145.18;100.00;46654.53;4990750;28;20050;-69
2022/09/17 00:05:41;;;;;;;11.93;1.80;;;;;;;-145.18;100.00;46664.31;4991195;28;20030;-69
2022/09/17 00:08:10;;;;;;;14.70;1.73;;;;;;;-145.18;100.00;46660.41;4991062;28;20032;-69
2022/09/17 00:10:38;;;;;;;16.87;2.03;;;;;;;-145.18;100.00;46660.41;4973427;28;20034;-69
2022/09/17 00:13:04;;;;;;;13.87;2.27;;;;;;;-145.18;100.00;46660.41;4991059;28;20037;-69
2022/09/17 00:15:30;;;;;;;16.73;1.77;;;;;;;-145.18;100.00;46656.50;4990942;28;20310;-69
2022/09/17 00:17:56;;;;;;;14.40;3.97;;;;;;;-145.18;100.00;46656.50;4990901;28;20117;-70
2022/09/17 00:20:25;;;;;;;13.13;1.93;;;;;;;-145.18;100.00;46658.44;4991207;28;20034;-69
2022/09/17 00:22:52;;;;;;;12.00;1.40;;;;;;;-145.18;100.00;46658.44;4990666;28;20034;-69
2022/09/17 00:25:18;;;;;;;22.23;2.43;;;;;;;-145.18;100.00;46656.50;4991157;28;20033;-69
2022/09/17 00:27:44;;;;;;;13.70;3.47;;;;;;;-145.18;100.00;46658.44;4990609;28;20091;-68
2022/09/17 00:30:10;;;;;;;15.53;1.90;;;;;;;-145.18;100.00;46656.50;4991277;28;20054;-68
2022/09/17 00:32:36;;;;;;;12.50;1.70;;;;;;;-145.18;100.00;46654.53;4990713;28;20030;-68
2022/09/17 00:35:01;;;;;;;13.27;2.07;;;;;;;-145.18;100.00;46654.53;4973668;28;20046;-68
2022/09/17 00:37:26;;;;;;;15.00;1.90;;;;;;;-145.18;100.00;46656.50;4990658;28;20039;-68
2022/09/17 00:39:52;;;;;;;14.03;1.63;;;;;;;-145.18;100.00;46664.31;4990843;28;20118;-68
2022/09/17 00:42:18;;;;;;;14.03;1.87;;;;;;;-145.18;100.00;46654.53;4990584;28;20045;-69
2022/09/17 00:44:49;;;;;;;12.10;1.87;;;;;;;-145.18;100.00;46654.53;4990670;28;20077;-69
2022/09/17 00:47:23;;;;;;;14.50;2.30;;;;;;;-145.18;100.00;46656.50;4993821;28;20065;-68
2022/09/17 00:49:53;;;;;;;17.27;2.80;;;;;;;-145.18;100.00;46654.53;4994964;28;20042;-69
2022/09/17 00:52:27;;;;;;;14.30;2.37;;;;;;;-145.18;100.00;46654.53;4994609;28;20026;-69
2022/09/17 00:55:01;;;;;;;10.90;1.53;;;;;;;-145.18;100.00;46654.53;4994871;28;20268;-68
2022/09/17 00:57:29;;;;;;;20.87;2.33;;;;;;;-145.18;100.00;46654.53;5009635;28;20294;-68
2022/09/17 00:59:55;;;;;;;16.97;2.50;;;;;;;-145.18;100.00;46650.63;5014722;28;20357;-69
2022/09/17 01:02:21;;;;;;;12.57;2.53;;;;;;;-145.18;100.00;46650.63;5013989;28;20036;-69
2022/09/17 01:04:46;;;;;;;15.93;1.93;;;;;;;-145.18;100.00;46646.72;4996355;28;20604;-69
2022/09/17 01:07:21;;;;;;;14.87;1.60;;;;;;;-145.18;100.00;46646.72;4996134;28;20030;-68
2022/09/17 01:09:58;;;;;;;13.00;1.87;;;;;;;-145.18;100.00;46658.44;5014078;28;20026;-69
2022/09/17 01:12:36;;;;;;;14.77;2.03;;;;;;;-145.18;100.00;46646.72;5013843;28;20263;-69
2022/09/17 01:15:07;;;;;;;13.90;1.60;;;;;;;-145.18;100.00;46648.69;5014330;28;20109;-69
2022/09/17 01:17:42;;;;;;;15.00;1.50;;;;;;;-145.18;100.00;46646.72;4995872;28;20330;-69
2022/09/17 01:20:37;;;;;;;9.95;1.80;;;;;;;-145.18;100.00;46648.69;5014442;28;20077;-69
2022/09/17 01:23:41;;;;;;;11.87;1.63;;;;;;;-145.18;100.00;46648.69;5013579;28;20180;-69
2022/09/17 01:26:26;;;;;;;17.03;1.50;;;;;;;-145.18;100.00;46648.69;4980902;28;20057;-69
2022/09/17 01:29:28;;;;;;;10.00;1.27;;;;;;;-145.18;100.00;46650.63;5013440;28;20037;-70
2022/09/17 01:32:13;;;;;;;10.43;2.20;;;;;;;-145.18;100.00;46656.50;5013508;28;20275;-69
2022/09/17 01:35:13;;;;;;;9.87;1.50;;;;;;;-145.18;100.00;46658.44;5013576;28;20030;-70
2022/09/17 01:37:54;;;;;;;8.13;1.30;;;;;;;-145.18;100.00;46658.44;5013239;28;20383;-70
2022/09/17 01:40:34;;;;;;;11.17;1.60;;;;;;;-145.18;100.00;46658.44;5013888;28;20271;-69
2022/09/17 01:43:21;;;;;;;11.90;1.23;;;;;;;-145.18;100.00;46662.34;4995337;28;20045;-69
2022/09/17 01:46:25;;;;;;;13.30;1.40;;;;;;;-145.18;100.00;46664.31;5013638;28;20034;-69
2022/09/17 01:48:57;;;;;;;12.33;1.13;;;;;;;-145.18;100.00;46660.41;5013210;28;20346;-70
2022/09/17 01:51:25;;;;;;;11.23;1.50;;;;;;;-145.18;100.00;46664.31;5013379;28;20632;-69
2022/09/17 01:54:06;;;;;;;13.70;2.10;;;;;;;-145.18;100.00;46658.44;5012778;28;20029;-69
2022/09/17 01:56:56;;;;;;;9.87;1.20;;;;;;;-145.18;100.00;46662.34;5013271;28;20298;-70
2022/09/17 01:59:29;;;;;;;12.70;1.23;;;;;;;-145.18;100.00;46666.25;5013243;28;20349;-70
2022/09/17 02:02:29;;;;;;;11.23;1.50;;;;;;;-145.18;100.00;46666.25;5269107;23;20267;-70
2022/09/17 02:05:07;;;;;;;9.70;1.00;;;;;;;-145.18;100.00;46664.31;4999136;28;20382;-69
2022/09/17 02:07:41;;;;;;;7.83;1.00;;;;;;;-145.18;100.00;46666.25;4999873;28;20288;-69
2022/09/17 02:10:15;;;;;;;8.57;1.10;;;;;;;-145.18;100.00;46668.22;5012551;28;20244;-70
2022/09/17 02:12:47;;;;;;;18.27;1.00;;;;;;;-145.18;100.00;46664.31;5007475;28;20100;-70
2022/09/17 02:15:22;;;;;;;10.97;1.63;;;;;;;-145.18;100.00;46674.06;5013254;28;20267;-70
2022/09/17 02:17:53;;;;;;;10.02;1.50;;;;;;;-145.18;100.00;46672.13;4995850;28;20065;-70
2022/09/17 02:20:25;;;;;;;13.80;1.73;;;;;;;-145.18;100.00;46672.13;5013297;28;20061;-70
2022/09/17 02:22:56;;;;;;;13.03;2.03;;;;;;;-145.18;100.00;46670.16;5012627;28;20287;-70
2022/09/17 02:25:41;;;;;;;12.27;1.57;;;;;;;-145.18;100.00;46672.13;5012930;28;20038;-70
2022/09/17 02:28:12;;;;;;;11.77;1.20;;;;;;;-145.18;100.00;46670.16;5012093;28;20033;-70
2022/09/17 02:30:37;;;;;;;13.97;1.37;;;;;;;-145.18;100.00;46670.16;5013072;28;20343;-70
2022/09/17 02:33:07;;;;;;;9.40;1.10;;;;;;;-145.18;100.00;46664.31;5012456;28;20109;-70
2022/09/17 02:35:32;;;;;;;10.23;1.70;;;;;;;-145.18;100.00;46666.25;5012762;28;20026;-70
2022/09/17 02:37:59;;;;;;;10.13;1.63;;;;;;;-145.18;100.00;46674.06;5012180;28;21043;-70
2022/09/17 02:40:30;;;;;;;14.00;1.80;;;;;;;-145.18;100.00;46670.16;5012568;28;20045;-71
2022/09/17 02:43:07;;;;;;;12.57;1.60;;;;;;;-145.18;100.00;46672.13;5012031;28;20291;-70
2022/09/17 02:45:52;;;;;;;7.80;1.20;;;;;;;-145.18;100.00;46660.41;5012622;28;20275;-70
2022/09/17 02:48:30;;;;;;;10.47;1.17;;;;;;;-145.18;100.00;46664.31;5012298;28;20728;-70
2022/09/17 02:51:11;;;;;;;8.63;1.27;;;;;;;-145.18;100.00;46664.31;5012235;28;20274;-70
2022/09/17 02:53:42;;;;;;;14.93;1.33;;;;;;;-145.18;100.00;46666.25;5012219;28;20794;-70
2022/09/17 02:56:17;;;;;;;8.60;1.27;;;;;;;-145.18;100.00;46660.41;5012262;28;20267;-71
2022/09/17 02:59:00;;;;;;;8.05;0.93;;;;;;;-145.18;100.00;46668.22;5011901;28;20274;-70
2022/09/17 03:01:56;;;;;;;8.30;1.30;;;;;;;-145.18;100.00;46662.34;5012200;28;20364;-70
2022/09/17 03:04:25;;;;;;;9.83;1.27;;;;;;;-145.18;100.00;46662.34;5011513;28;20279;-70
2022/09/17 03:06:52;;;;;;;9.80;2.17;;;;;;;-145.18;100.00;46666.25;5011952;28;20310;-71
2022/09/17 03:09:17;;;;;;;5.53;1.07;;;;;;;-145.18;100.00;46660.41;4994412;28;20337;-70
2022/09/17 03:11:43;;;;;;;13.20;1.17;;;;;;;-145.18;100.00;46664.31;5011867;28;20049;-71
2022/09/17 03:14:08;;;;;;;7.50;1.07;;;;;;;-145.18;100.00;46664.31;5011659;28;20060;-71
2022/09/17 03:16:34;;;;;;;13.53;2.50;;;;;;;-145.18;100.00;46664.31;5011829;28;20510;-72
2022/09/17 03:18:59;;;;;;;7.50;1.17;;;;;;;-145.18;100.00;46660.41;5011240;28;20068;-71
2022/09/17 03:21:25;;;;;;;4.90;1.07;;;;;;;-145.18;100.00;46660.41;5011761;28;20038;-71
2022/09/17 03:23:51;;;;;;;6.53;1.17;;;;;;;-145.18;100.00;46660.41;5011500;28;20042;-71
2022/09/17 03:26:16;;;;;;;11.60;1.40;;;;;;;-145.18;100.00;46658.44;5031107;28;20492;-71
2022/09/17 03:28:41;;;;;;;14.33;1.70;;;;;;;-145.18;100.00;46654.53;5031291;28;20044;-71
2022/09/17 03:31:07;;;;;;;9.03;1.17;;;;;;;-145.18;100.00;46654.53;5031170;28;20030;-71
2022/09/17 03:33:32;;;;;;;6.60;0.90;;;;;;;-145.18;100.00;46658.44;5030972;28;20530;-71
2022/09/17 03:35:58;;;;;;;4.50;1.23;;;;;;;-145.18;100.00;46656.50;5031209;28;20461;-71
2022/09/17 03:38:23;;;;;;;11.10;1.10;;;;;;;-145.18;100.00;46656.50;5013442;28;20038;-71
2022/09/17 03:41:03;;;;;;;12.57;2.40;;;;;;;-145.18;100.00;46658.44;5026679;28;20094;-71
2022/09/17 03:43:29;;;;;;;16.83;1.77;;;;;;;-145.18;100.00;46658.44;5011424;28;20044;-71
2022/09/17 03:45:55;;;;;;;14.00;1.77;;;;;;;-145.18;100.00;46654.53;5010810;28;20639;-71
2022/09/17 03:48:21;;;;;;;22.00;2.60;;;;;;;-145.18;100.00;46654.53;4993432;28;20034;-71
2022/09/17 03:50:46;;;;;;;13.03;2.03;;;;;;;-145.18;100.00;46656.50;5011329;28;20041;-71
2022/09/17 03:53:12;;;;;;;11.03;1.63;;;;;;;-145.18;100.00;46656.50;5010810;28;20283;-71
2022/09/17 03:55:38;;;;;;;14.60;1.87;;;;;;;-145.18;100.00;46654.53;5011394;28;20144;-71
2022/09/17 03:58:04;;;;;;;10.93;1.30;;;;;;;-145.18;100.00;46654.53;5011003;28;20092;-71
2022/09/17 04:00:29;;;;;;;16.13;1.97;;;;;;;-145.18;100.00;46658.44;5023286;28;20251;-71
2022/09/17 04:02:54;;;;;;;13.03;2.00;;;;;;;-145.18;100.00;46654.53;5020664;28;20058;-71
2022/09/17 04:05:20;;;;;;;16.43;2.53;;;;;;;-145.18;100.00;46662.34;5030480;28;20399;-71
2022/09/17 04:07:45;;;;;;;16.83;2.70;;;;;;;-145.18;100.00;46662.34;5029924;28;20037;-71
2022/09/17 04:10:10;;;;;;;10.53;1.73;;;;;;;-145.18;100.00;46666.25;5019996;28;20030;-71
2022/09/17 04:12:36;;;;;;;17.97;1.93;;;;;;;-145.18;100.00;46666.25;5013156;28;20401;-71
2022/09/17 04:15:01;;;;;;;12.13;2.20;;;;;;;-145.18;100.00;46662.34;5010241;28;20029;-70
2022/09/17 04:17:27;;;;;;;15.67;2.10;;;;;;;-145.18;100.00;46668.22;5000062;28;20158;-71
2022/09/17 04:19:52;;;;;;;18.13;2.57;;;;;;;-145.18;100.00;46664.31;5009119;28;20033;-71
2022/09/17 04:22:18;;;;;;;15.40;1.73;;;;;;;-145.18;100.00;46670.16;5022232;28;20033;-71
2022/09/17 04:24:43;;;;;;;10.70;2.03;;;;;;;-145.18;100.00;46664.31;4996507;28;20628;-72
2022/09/17 04:27:08;;;;;;;13.53;2.20;;;;;;;-145.18;100.00;46670.16;5020668;28;20032;-70
2022/09/17 04:29:34;;;;;;;11.93;1.33;;;;;;;-145.18;100.00;46676.03;5012794;28;20124;-70
2022/09/17 04:31:59;;;;;;;12.37;1.87;;;;;;;-145.18;100.00;46670.16;5028943;28;20076;-71
2022/09/17 04:34:25;;;;;;;9.67;1.30;;;;;;;-145.18;100.00;46672.13;5012576;28;20025;-71
2022/09/17 04:36:50;;;;;;;8.37;1.97;;;;;;;-145.18;100.00;46664.31;5012738;28;20479;-71
2022/09/17 04:39:16;;;;;;;10.30;1.60;;;;;;;-145.18;100.00;46670.16;5012260;28;20503;-71
2022/09/17 04:41:42;;;;;;;9.40;1.50;;;;;;;-145.18;100.00;46668.22;5012343;28;20057;-71
2022/09/17 04:44:07;;;;;;;11.57;1.87;;;;;;;-145.18;100.00;46662.34;5013802;28;20033;-71
2022/09/17 04:46:32;;;;;;;11.20;1.43;;;;;;;-145.18;100.00;46664.31;5023467;28;20037;-71
2022/09/17 04:48:58;;;;;;;8.93;1.80;;;;;;;-145.18;100.00;46670.16;5011078;28;20030;-71
2022/09/17 04:51:23;;;;;;;13.57;1.23;;;;;;;-145.18;100.00;46672.13;5004563;28;20381;-72
2022/09/17 04:53:49;;;;;;;14.27;1.60;;;;;;;-145.18;100.00;46664.31;5009827;28;20045;-71
2022/09/17 04:56:14;;;;;;;38.67;2.40;;;;;;;-145.18;100.00;46670.16;5023084;28;20029;-72
2022/09/17 04:58:39;;;;;;;14.03;1.90;;;;;;;-145.18;100.00;46668.22;5029851;28;20477;-71
2022/09/17 05:01:05;;;;;;;14.57;1.50;;;;;;;-145.18;100.00;46658.44;5020034;28;20069;-71
2022/09/17 05:03:30;;;;;;;14.20;2.43;;;;;;;-145.18;100.00;46662.34;4996737;28;20454;-72
2022/09/17 05:05:55;;;;;;;12.70;1.90;;;;;;;-145.18;100.00;46662.34;5024779;28;20496;-72
2022/09/17 05:08:22;;;;;;;14.77;1.57;;;;;;;-145.18;100.00;46662.34;5030442;28;20065;-71
2022/09/17 05:10:50;;;;;;;15.00;1.50;;;;;;;-145.18;100.00;46664.31;5013501;28;20075;-72
2022/09/17 05:13:15;;;;;;;10.20;1.13;;;;;;;-145.18;100.00;46668.22;5030611;28;20369;-72
2022/09/17 05:15:41;;;;;;;17.70;1.70;;;;;;;-145.18;100.00;46664.31;5031067;28;20273;-72
2022/09/17 05:18:06;;;;;;;11.40;1.37;;;;;;;-145.18;100.00;46666.25;5030427;28;20041;-72
2022/09/17 05:20:32;;;;;;;10.97;1.77;;;;;;;-145.18;100.00;46660.41;5012735;28;20033;-72
2022/09/17 05:22:57;;;;;;;10.43;1.00;;;;;;;-145.18;100.00;46670.16;5011721;28;20041;-73
2022/09/17 05:25:23;;;;;;;4.97;0.90;;;;;;;-145.18;100.00;46670.16;4998293;28;20034;-72
2022/09/17 05:27:50;;;;;;;5.90;0.60;;;;;;;-145.18;100.00;46666.25;5004654;28;20045;-72
2022/09/17 05:30:15;;;;;;;8.37;1.00;;;;;;;-145.18;100.00;46677.97;5010620;28;20521;-72
2022/09/17 05:32:41;;;;;;;6.37;1.90;;;;;;;-145.18;100.00;46666.25;5010821;28;20279;-71
2022/09/17 05:35:07;;;;;;;5.20;0.97;;;;;;;-145.18;100.00;46672.13;5013606;28;20034;-71
2022/09/17 05:37:33;;;;;;;5.17;1.37;;;;;;;-145.18;100.00;46674.06;5013521;28;20513;-72
2022/09/17 05:39:58;;;;;;;9.00;0.80;;;;;;;-145.18;100.00;46670.16;5017712;28;20275;-73
2022/09/17 05:42:27;;;;;;;4.60;0.60;;;;;;;-145.18;100.00;46668.22;5018695;28;20033;-75
2022/09/17 05:44:52;;;;;;;7.00;1.20;;;;;;;-145.18;100.00;46672.13;5032650;28;20065;-73
2022/09/17 05:47:17;;;;;;;3.33;0.60;;;;;;;-145.18;100.00;46668.22;5033974;28;20314;-73
2022/09/17 05:49:43;;;;;;;3.43;0.70;;;;;;;-145.18;100.00;46674.06;5032788;28;20057;-74
2022/09/17 05:52:08;;;;;;;4.23;0.80;;;;;;;-145.18;100.00;46676.03;5028942;28;20061;-73
2022/09/17 05:54:33;;;;;;;7.00;1.00;;;;;;;-145.18;100.00;46677.97;4996029;28;20034;-74
2022/09/17 05:56:59;;;;;;;12.00;1.67;;;;;;;-145.18;100.00;46683.84;5013855;28;20042;-73
2022/09/17 05:59:24;;;;;;;4.17;0.53;;;;;;;-145.18;100.00;46676.03;5013721;28;20501;-73
2022/09/17 06:01:49;;;;;;;6.40;1.07;;;;;;;-145.18;100.00;46672.13;5013200;28;20038;-73
2022/09/17 06:04:16;;;;;;;2.43;0.50;;;;;;;-145.18;100.00;46674.06;4998242;28;20117;-73
2022/09/17 06:06:42;;;;;;;4.57;0.80;;;;;;;-145.18;100.00;46676.03;4994392;28;20042;-73
2022/09/17 06:09:07;;;;;;;3.47;0.63;;;;;;;-145.18;100.00;46683.84;5008868;28;20287;-73
2022/09/17 06:11:34;;;;;;;3.90;0.63;;;;;;;-145.18;100.00;46679.94;5011676;28;20088;-73
2022/09/17 06:13:59;;;;;;;5.50;0.80;;;;;;;-145.18;100.00;46674.06;5005051;28;20026;-73
2022/09/17 06:16:25;;;;;;;3.03;0.53;;;;;;;-145.18;100.00;46677.97;5010516;28;20345;-73
2022/09/17 06:18:54;;;;;;;9.97;1.13;;;;;;;-145.18;100.00;46676.03;5012809;28;20036;-73
2022/09/17 06:21:23;;;;;;;5.23;0.70;;;;;;;-145.18;100.00;46674.06;5013461;28;20084;-73
2022/09/17 06:23:51;;;;;;;6.77;1.20;;;;;;;-145.18;100.00;46672.13;5009855;28;20268;-73
2022/09/17 06:26:17;;;;;;;4.93;0.90;;;;;;;-145.18;100.00;46672.13;5015432;28;20297;-73
2022/09/17 06:28:43;;;;;;;9.73;1.27;;;;;;;-145.18;100.00;46670.16;5013036;28;20057;-73
2022/09/17 06:31:10;;;;;;;8.07;1.00;;;;;;;-145.18;100.00;46670.16;5001657;28;20084;-73
2022/09/17 06:33:36;;;;;;;6.30;0.73;;;;;;;-145.18;100.00;46670.16;4992934;28;20280;-73
2022/09/17 06:36:04;;;;;;;8.23;0.93;;;;;;;-145.18;100.00;46668.22;4993396;28;20272;-72
2022/09/17 06:38:32;;;;;;;5.97;0.90;;;;;;;-145.18;100.00;46668.22;4992892;28;20423;-72
2022/09/17 06:40:58;;;;;;;10.10;1.10;;;;;;;-145.18;100.00;46664.31;4993258;28;20276;-72
2022/09/17 06:43:23;;;;;;;8.47;0.90;;;;;;;-145.18;100.00;46664.31;5011414;28;20040;-73
2022/09/17 06:45:57;;;;;;;5.93;0.93;;;;;;;-145.18;100.00;46666.25;5001987;28;20031;-74
2022/09/17 06:48:23;;;;;;;9.07;1.00;;;;;;;-145.18;100.00;46666.25;4992309;28;20065;-74
2022/09/17 06:50:50;;;;;;;7.00;1.03;;;;;;;-145.18;100.00;46664.31;4992981;28;20038;-74
2022/09/17 06:53:15;;;;;;;5.30;1.10;;;;;;;-145.18;100.00;46672.13;5030659;28;20045;-72
2022/09/17 06:55:41;;;;;;;8.23;0.90;;;;;;;-145.18;100.00;46662.34;5014300;28;20279;-72
2022/09/17 06:58:06;;;;;;;8.63;0.70;;;;;;;-145.18;100.00;46666.25;5010359;28;20997;-72
2022/09/17 07:00:32;;;;;;;7.93;1.20;;;;;;;-145.18;100.00;46672.13;5003220;28;20403;-72
2022/09/17 07:02:59;;;;;;;5.30;0.70;;;;;;;-145.18;100.00;46664.31;5005005;28;20056;-73
2022/09/17 07:05:26;;;;;;;8.07;0.77;;;;;;;-145.18;100.00;46672.13;5030545;28;20378;-72
2022/09/17 07:07:51;;;;;;;7.27;1.13;;;;;;;-145.18;100.00;46668.22;5022026;28;20470;-73
2022/09/17 07:10:17;;;;;;;3.80;0.77;;;;;;;-145.18;100.00;46668.22;5031963;28;20088;-73
2022/09/17 07:12:43;;;;;;;8.47;1.40;;;;;;;-145.18;100.00;46662.34;5019032;28;20036;-73
2022/09/17 07:15:10;;;;;;;3.57;0.70;;;;;;;-145.18;100.00;46672.13;5028499;28;20032;-73
2022/09/17 07:17:39;;;;;;;4.83;1.63;;;;;;;-145.18;100.00;46664.31;5013607;28;20056;-73
2022/09/17 07:20:06;;;;;;;10.30;1.67;;;;;;;-145.18;100.00;46672.13;5005570;28;20023;-74
2022/09/17 07:22:31;;;;;;;9.43;1.00;;;;;;;-145.18;100.00;46670.16;5011214;28;20632;-72
2022/09/17 07:24:57;;;;;;;6.80;1.17;;;;;;;-145.18;100.00;46666.25;5012437;28;20125;-73
2022/09/17 07:27:22;;;;;;;10.07;1.30;;;;;;;-145.18;100.00;46674.06;5032095;28;20033;-73
2022/09/17 07:29:48;;;;;;;7.27;1.30;;;;;;;-145.18;100.00;46670.16;5031348;28;20037;-73
2022/09/17 07:32:13;;;;;;;8.57;1.10;;;;;;;-145.18;100.00;46672.13;5031469;28;20813;-74
2022/09/17 07:34:38;;;;;;;6.63;0.77;;;;;;;-145.18;100.00;46670.16;5031269;28;20115;-75
2022/09/17 07:37:04;;;;;;;4.80;0.70;;;;;;;-145.18;100.00;46677.97;5030557;28;20560;-74
2022/09/17 07:39:29;;;;;;;8.60;1.03;;;;;;;-145.18;100.00;46676.03;5030970;28;20041;-75
2022/09/17 07:41:55;;;;;;;11.73;0.97;;;;;;;-145.18;100.00;46676.03;5030687;28;20123;-74
2022/09/17 07:44:21;;;;;;;5.83;1.00;;;;;;;-145.18;100.00;46676.03;5029350;28;20045;-74
2022/09/17 07:46:47;;;;;;;8.10;1.00;;;;;;;-145.18;100.00;46679.94;5031332;28;20255;-75
2022/09/17 07:49:12;;;;;;;8.63;0.87;;;;;;;-145.18;100.00;46679.94;5030727;28;20386;-74
2022/09/17 07:51:37;;;;;;;6.63;0.80;;;;;;;-145.18;100.00;46681.88;5030211;28;20045;-74
2022/09/17 07:54:03;;;;;;;3.37;0.80;;;;;;;-145.18;100.00;46683.84;5021296;28;20025;-74
2022/09/17 07:56:28;;;;;;;4.33;0.67;;;;;;;-145.18;100.00;46683.84;5024337;28;20029;-75
2022/09/17 07:58:54;;;;;;;6.00;0.70;;;;;;;-145.18;100.00;46677.97;5003709;28;20030;-75
2022/09/17 08:01:21;;;;;;;6.50;1.33;;;;;;;-145.18;100.00;46679.94;5001359;28;20680;-75
2022/09/17 08:03:49;;;;;;;6.33;0.70;;;;;;;-145.18;100.00;46679.94;4994652;28;20063;-75
2022/09/17 08:06:16;;;;;;;7.57;1.23;;;;;;;-145.18;100.00;46679.94;4996509;28;20034;-75
2022/09/17 08:08:42;;;;;;;6.37;1.20;;;;;;;-145.18;100.00;46676.03;4996439;28;20030;-74
2022/09/17 08:11:10;;;;;;;5.47;0.93;;;;;;;-145.18;100.00;46681.88;4995006;28;20535;-74
2022/09/17 08:13:35;;;;;;;4.43;0.80;;;;;;;-145.18;100.00;46681.88;5001433;28;20148;-74
2022/09/17 08:16:07;;;;;;;7.83;1.00;;;;;;;-145.18;100.00;46681.88;4995754;28;20215;-75
2022/09/17 08:18:33;;;;;;;9.03;1.33;;;;;;;-145.18;100.00;46679.94;4995884;28;20025;-75
2022/09/17 08:21:01;;;;;;;6.57;1.20;;;;;;;-145.18;100.00;46677.97;4979401;28;20487;-74
2022/09/17 08:23:28;;;;;;;7.50;1.00;;;;;;;-145.18;100.00;46674.06;5011425;28;20116;-75
2022/09/17 08:25:55;;;;;;;6.63;1.07;;;;;;;-145.18;100.00;46662.34;5000518;28;20027;-74
2022/09/17 08:28:21;;;;;;;9.70;1.00;;;;;;;-145.18;100.00;46650.63;4990586;28;20033;-74
2022/09/17 08:30:48;;;;;;;8.07;1.17;;;;;;;-145.18;100.00;46646.72;5026005;28;20096;-73
2022/09/17 08:33:14;;;;;;;5.47;1.43;;;;;;;-145.18;100.00;46619.38;5029938;28;20121;-74
2022/09/17 08:35:39;;;;;;;6.97;0.93;;;;;;;-145.18;100.00;46609.59;5012479;28;20116;-73
2022/09/17 08:38:06;;;;;;;6.77;0.93;;;;;;;-145.18;100.00;46619.38;5029392;28;20088;-74
2022/09/17 08:40:38;;;;;;;5.90;1.07;;;;;;;-145.18;100.00;46642.81;5030472;28;20029;-73
2022/09/17 08:43:04;;;;;;;6.97;0.80;;;;;;;-145.18;100.00;46613.50;5018167;28;20091;-73
2022/09/17 08:45:29;;;;;;;14.17;1.23;;;;;;;-145.18;100.00;46613.50;5014322;28;20022;-74
2022/09/17 08:48:01;;;;;;;3.67;0.70;;;;;;;-145.18;100.00;46642.81;5009248;28;20042;-75
2022/09/17 08:50:33;;;;;;;7.90;1.00;;;;;;;-145.18;100.00;46633.06;5012341;28;20072;-74
2022/09/17 08:53:05;;;;;;;4.73;0.70;;;;;;;-145.18;100.00;46599.84;5029675;28;20037;-74
2022/09/17 08:55:43;;;;;;;4.90;0.70;;;;;;;-145.18;100.00;46588.13;5030198;28;20025;-73
2022/09/17 08:58:47;;;;;;;6.47;1.13;;;;;;;-145.18;100.00;46576.41;5028128;28;20018;-74
2022/09/17 09:01:33;;;;;;;7.07;1.43;;;;;;;-145.18;100.00;46576.41;5023874;28;20398;-74
2022/09/17 09:04:13;;;;;;;5.93;0.50;;;;;;;-145.18;100.00;46566.63;5007864;28;20387;-72
2022/09/17 09:06:48;;;;;;;5.53;0.60;;;;;;;-145.18;100.00;46586.16;5001864;28;20026;-73
2022/09/17 09:09:20;;;;;;;4.53;0.77;;;;;;;-145.18;100.00;46633.06;5014734;28;20034;-72
2022/09/17 09:11:48;;;;;;;5.73;0.70;;;;;;;-145.18;100.00;46658.44;5013227;28;20540;-72
2022/09/17 09:14:21;;;;;;;6.63;0.80;;;;;;;-145.18;100.00;46664.31;5012787;28;20072;-71
2022/09/17 09:16:48;;;;;;;3.73;0.70;;;;;;;-145.18;100.00;46676.03;5022743;28;20049;-72
2022/09/17 09:19:28;;;;;;;4.83;0.63;;;;;;;-145.18;100.00;46636.94;5010927;28;20034;-72
2022/09/17 09:22:02;;;;;;;15.23;1.40;;;;;;;-145.18;100.00;46623.28;5005209;28;20091;-72
2022/09/17 09:24:59;;;;;;;5.43;0.73;;;;;;;-145.18;100.00;46592.03;5015553;28;20041;-72
2022/09/17 09:27:42;;;;;;;5.27;0.90;;;;;;;-145.18;100.00;46582.25;5026375;28;20033;-73
2022/09/17 09:30:12;;;;;;;5.80;0.87;;;;;;;-145.18;100.00;46590.06;5032670;28;20389;-74
2022/09/17 09:32:49;;;;;;;6.93;1.33;;;;;;;-145.18;100.00;46562.72;5001255;28;20049;-74
2022/09/17 09:35:19;;;;;;;4.63;0.60;;;;;;;-145.18;100.00;46566.63;5032333;28;20040;-74
2022/09/17 09:37:55;;;;;;;3.30;0.43;;;;;;;-145.18;100.00;46554.91;5033303;28;20105;-74
2022/09/17 09:40:39;;;;;;;8.73;0.77;;;;;;;-145.18;100.00;46574.44;5032694;28;20037;-74
2022/09/17 09:43:28;;;;;;;4.53;0.50;;;;;;;-145.18;100.00;46593.97;5033021;28;20033;-74
2022/09/17 09:46:02;;;;;;;2.67;0.60;;;;;;;-145.18;100.00;46597.88;5032802;28;20029;-74
2022/09/17 09:48:36;;;;;;;3.80;0.70;;;;;;;-145.18;100.00;46595.94;5026161;28;20387;-72
2022/09/17 09:51:25;;;;;;;3.13;0.45;;;;;;;-145.18;100.00;46572.50;5016633;28;20055;-71
2022/09/17 09:54:23;;;;;;;2.37;0.60;;;;;;;-145.18;100.00;46574.44;5002637;28;20107;-71
2022/09/17 09:56:52;;;;;;;3.83;0.50;;;;;;;-145.18;100.00;46652.59;5000140;28;20038;-71
2022/09/17 09:59:18;;;;;;;3.60;0.40;;;;;;;-145.18;100.00;46679.94;5009163;28;20490;-71
2022/09/17 10:01:45;;;;;;;5.10;0.70;;;;;;;-145.18;100.00;46681.88;5008012;28;20179;-72
2022/09/17 10:04:26;;;;;;;3.57;0.40;;;;;;;-145.18;100.00;46681.88;5014373;28;20100;-72
2022/09/17 10:06:54;;;;;;;7.40;0.63;;;;;;;-145.18;100.00;46685.78;5007312;28;20041;-71
2022/09/17 10:09:21;;;;;;;5.37;0.90;;;;;;;-145.18;100.00;46683.84;5002673;28;20030;-70
2022/09/17 10:12:01;;;;;;;3.17;0.50;;;;;;;-145.18;100.00;46679.94;5011723;28;20147;-71
2022/09/17 10:14:29;;;;;;;4.87;0.60;;;;;;;-145.18;100.00;46683.84;5031589;28;20025;-72
2022/09/17 10:17:13;;;;;;;3.33;0.50;;;;;;;-145.18;100.00;46677.97;5032916;28;20080;-72
2022/09/17 10:19:39;;;;;;;5.03;1.17;;;;;;;-145.18;100.00;46685.78;5032190;28;20033;-72
2022/09/17 10:22:35;;;;;;;7.97;1.23;;;;;;;-145.18;100.00;46681.88;5032582;28;20061;-72
2022/09/17 10:25:02;;;;;;;3.58;0.50;;;;;;;-145.18;100.00;46683.84;5030143;28;20584;-73
2022/09/17 10:27:29;;;;;;;4.33;0.50;;;;;;;-145.18;100.00;46683.84;5020354;28;20569;-73
2022/09/17 10:30:02;;;;;;;9.13;0.83;;;;;;;-145.18;100.00;46683.84;5012174;28;20152;-73
2022/09/17 10:32:28;;;;;;;3.60;0.80;;;;;;;-145.18;100.00;46681.88;5011839;28;20097;-73
2022/09/17 10:35:15;;;;;;;5.57;1.47;;;;;;;-145.18;100.00;46679.94;5011151;28;20708;-73
2022/09/17 10:37:43;;;;;;;4.43;0.50;;;;;;;-145.18;100.00;46676.03;5013039;28;20390;-74
2022/09/17 10:40:17;;;;;;;7.23;1.53;;;;;;;-145.18;100.00;46664.31;4990891;28;20089;-74
2022/09/17 10:42:47;;;;;;;4.53;0.70;;;;;;;-145.18;100.00;46670.16;5013155;28;20092;-74
2022/09/17 10:45:22;;;;;;;7.30;0.97;;;;;;;-145.18;100.00;46681.88;5013188;28;20042;-73
2022/09/17 10:47:47;;;;;;;5.87;1.00;;;;;;;-145.18;100.00;46681.88;5012345;28;20038;-73
2022/09/17 10:50:22;;;;;;;7.80;0.60;;;;;;;-145.18;100.00;46681.88;5011696;28;20034;-73
2022/09/17 10:52:54;;;;;;;3.95;0.57;;;;;;;-145.18;100.00;46683.84;5012434;28;20521;-73
2022/09/17 10:55:53;;;;;;;8.03;1.20;;;;;;;-145.18;100.00;46683.84;5015250;28;20034;-73
2022/09/17 10:58:19;;;;;;;4.23;0.70;;;;;;;-145.18;100.00;46681.88;5025339;28;20116;-73
2022/09/17 11:00:47;;;;;;;7.40;0.93;;;;;;;-145.18;100.00;46677.97;5030352;28;20108;-73
2022/09/17 11:03:36;;;;;;;9.37;1.00;;;;;;;-145.18;100.00;46681.88;4999189;28;20075;-73
2022/09/17 11:06:28;;;;;;;6.37;0.70;;;;;;;-145.18;100.00;46679.94;5018852;28;20030;-74
2022/09/17 11:09:27;;;;;;;12.23;1.47;;;;;;;-145.18;100.00;46683.84;4999846;28;20486;-74
2022/09/17 11:12:17;;;;;;;9.07;1.20;;;;;;;-145.18;100.00;46677.97;5003670;28;20037;-74
2022/09/17 11:15:07;;;;;;;3.83;0.60;;;;;;;-145.18;100.00;46660.41;4991409;28;20503;-74
2022/09/17 11:18:00;;;;;;;5.40;1.03;;;;;;;-145.18;100.00;46633.06;4991836;28;20037;-74
2022/09/17 11:20:52;;;;;;;8.27;0.97;;;;;;;-145.18;100.00;46613.50;4991744;28;20454;-74
2022/09/17 11:23:52;;;;;;;8.33;1.80;;;;;;;-145.18;100.00;46621.31;5026958;28;20560;-74